Time;durP1;ratioP1;P1;durP2;ratioP2;P2;SDS_P1;SDS_P2;PMS_P1;PMS_P2;Temp;Humidity;BMP_temperature;BMP_pressure;BME280_temperature;BME280_humidity;BME280_pressure;Samples;Min_cycle;Max_cycle;Signal;HPM_P1;HPM_P2
2021/11/30 00:01:24;;;;;;;29.45;17.23;;;2.50;99.90;;;;;;6186102;23;20185;-89
2021/11/30 00:03:50;;;;;;;28.13;17.63;;;2.50;99.90;;;;;;6190270;23;20170;-90
2021/11/30 00:06:16;;;;;;;30.00;17.52;;;2.50;99.90;;;;;;6186246;23;20236;-90
2021/11/30 00:08:42;;;;;;;27.63;18.47;;;2.50;99.90;;;;;;6186648;23;20256;-88
2021/11/30 00:11:10;;;;;;;31.90;18.87;;;2.50;99.90;;;;;;6186532;23;20837;-91
2021/11/30 00:13:38;;;;;;;32.10;18.20;;;2.50;99.90;;;;;;6186368;23;20861;-91
2021/11/30 00:16:05;;;;;;;30.10;17.67;;;2.50;99.90;;;;;;6187979;23;20244;-91
2021/11/30 00:18:33;;;;;;;30.10;17.25;;;2.40;99.90;;;;;;6189543;23;20165;-90
2021/11/30 00:21:03;;;;;;;29.50;17.75;;;2.40;99.90;;;;;;6188131;23;20182;-90
2021/11/30 00:23:29;;;;;;;29.00;18.00;;;2.40;99.90;;;;;;6187686;23;20155;-91
2021/11/30 00:25:55;;;;;;;32.33;18.45;;;2.40;99.90;;;;;;6204084;23;20154;-90
2021/11/30 00:28:21;;;;;;;29.48;18.25;;;2.40;99.90;;;;;;6199680;23;20170;-90
2021/11/30 00:30:49;;;;;;;27.80;17.67;;;2.40;99.90;;;;;;6192090;23;20179;-91
2021/11/30 00:33:15;;;;;;;28.33;17.17;;;2.40;99.90;;;;;;6202003;23;20608;-91
2021/11/30 00:35:41;;;;;;;28.30;17.27;;;2.40;99.90;;;;;;6199179;23;20186;-90
2021/11/30 00:38:08;;;;;;;26.90;17.60;;;2.40;99.90;;;;;;6187773;23;20277;-90
2021/11/30 00:40:36;;;;;;;30.80;17.52;;;2.40;99.90;;;;;;6188719;23;20395;-89
2021/11/30 00:43:02;;;;;;;25.30;16.30;;;2.40;99.90;;;;;;6188868;23;20230;-90
2021/11/30 00:45:37;;;;;;;26.75;17.10;;;2.40;99.90;;;;;;6187712;23;20529;-91
2021/11/30 00:48:08;;;;;;;25.92;16.58;;;2.40;99.90;;;;;;6188055;23;20181;-92
2021/11/30 00:50:37;;;;;;;27.67;15.25;;;2.40;99.90;;;;;;6192530;23;20182;-90
2021/11/30 00:53:03;;;;;;;29.42;17.88;;;2.40;99.90;;;;;;6188260;23;20163;-90
2021/11/30 00:55:29;;;;;;;28.57;17.20;;;2.40;99.90;;;;;;6192242;23;20241;-92
2021/11/30 00:57:54;;;;;;;30.17;18.83;;;2.40;99.90;;;;;;6188101;23;20388;-90
2021/11/30 01:00:20;;;;;;;26.77;17.03;;;2.40;99.90;;;;;;6187791;23;20416;-90
2021/11/30 01:02:48;;;;;;;32.40;18.13;;;2.40;99.90;;;;;;6188134;23;20166;-91
2021/11/30 01:05:15;;;;;;;30.50;17.25;;;2.40;99.90;;;;;;6188061;23;20947;-90
2021/11/30 01:07:42;;;;;;;26.15;15.20;;;2.40;99.90;;;;;;6187558;23;20158;-90
2021/11/30 01:10:13;;;;;;;28.15;16.92;;;2.50;99.90;;;;;;6199454;23;20182;-89
2021/11/30 01:12:39;;;;;;;25.17;15.43;;;2.40;99.90;;;;;;6195213;23;20145;-92
2021/11/30 01:15:09;;;;;;;23.38;15.32;;;2.40;99.90;;;;;;6208476;23;20192;-90
2021/11/30 01:17:35;;;;;;;35.20;18.38;;;2.40;99.90;;;;;;6204530;23;20151;-90
2021/11/30 01:20:02;;;;;;;27.00;17.73;;;2.50;99.90;;;;;;6207441;23;20194;-92
2021/11/30 01:22:27;;;;;;;31.90;19.70;;;2.50;99.90;;;;;;6198491;23;20423;-91
2021/11/30 01:24:53;;;;;;;32.77;17.63;;;2.50;99.90;;;;;;6187627;23;20190;-89
2021/11/30 01:27:19;;;;;;;29.37;16.53;;;2.50;99.90;;;;;;6187751;23;20183;-91
2021/11/30 01:29:45;;;;;;;28.77;16.90;;;2.50;99.90;;;;;;6192697;23;20165;-90
2021/11/30 01:32:11;;;;;;;31.97;17.23;;;2.50;99.90;;;;;;6192743;23;20846;-90
2021/11/30 01:34:36;;;;;;;33.50;17.83;;;2.50;99.90;;;;;;6189034;23;20404;-92
2021/11/30 01:37:03;;;;;;;24.70;15.53;;;2.50;99.90;;;;;;6191620;23;20498;-92
2021/11/30 01:39:29;;;;;;;27.65;16.73;;;2.50;99.90;;;;;;6187794;23;20451;-90
2021/11/30 01:41:55;;;;;;;24.80;17.03;;;2.50;99.90;;;;;;6190275;23;20515;-91
2021/11/30 01:44:47;;;;;;;26.40;16.55;;;2.50;99.90;;;;;;6188260;23;20396;-90
2021/11/30 01:50:11;;;;;;;28.92;17.73;;;2.50;99.90;;;;;;6136170;23;20271;-90
2021/11/30 01:52:38;;;;;;;28.45;16.02;;;2.50;99.90;;;;;;6187865;23;20155;-92
2021/11/30 01:55:05;;;;;;;25.67;15.63;;;2.50;99.90;;;;;;6187516;23;20190;-90
2021/11/30 01:57:31;;;;;;;27.52;17.38;;;2.50;99.90;;;;;;6187354;23;20255;-92
2021/11/30 01:59:58;;;;;;;25.57;16.20;;;2.60;99.90;;;;;;6192278;23;20186;-90
2021/11/30 02:02:24;;;;;;;26.90;16.00;;;2.60;99.90;;;;;;6187539;23;20858;-89
2021/11/30 02:04:50;;;;;;;23.57;16.87;;;2.60;99.90;;;;;;6187509;23;20163;-90
2021/11/30 02:07:16;;;;;;;26.33;17.17;;;2.60;99.90;;;;;;6193684;23;20358;-89
2021/11/30 02:09:43;;;;;;;26.93;15.93;;;2.60;99.90;;;;;;6193341;23;20396;-91
2021/11/30 02:12:10;;;;;;;26.98;17.55;;;2.60;99.90;;;;;;6208039;23;20363;-90
2021/11/30 02:14:37;;;;;;;26.33;15.63;;;2.60;99.90;;;;;;6203019;23;20249;-91
2021/11/30 02:17:06;;;;;;;29.60;16.45;;;2.60;99.90;;;;;;6198152;23;20182;-90
2021/11/30 02:19:41;;;;;;;27.15;15.43;;;2.50;99.90;;;;;;6194029;23;20242;-91
2021/11/30 02:22:10;;;;;;;23.95;14.35;;;2.60;99.90;;;;;;6187566;23;20547;-93
2021/11/30 02:24:36;;;;;;;24.17;14.57;;;2.50;99.90;;;;;;6189706;23;20167;-91
2021/11/30 02:27:02;;;;;;;26.13;15.60;;;2.50;99.90;;;;;;6188687;23;20225;-89
2021/11/30 02:29:28;;;;;;;25.83;16.08;;;2.50;99.90;;;;;;6186832;23;20396;-90
2021/11/30 02:31:54;;;;;;;24.90;15.73;;;2.50;99.90;;;;;;6187932;23;20174;-90
2021/11/30 02:34:20;;;;;;;27.63;15.57;;;2.50;99.90;;;;;;6186748;23;20163;-91
2021/11/30 02:36:53;;;;;;;19.87;13.90;;;2.50;99.90;;;;;;6188171;23;20182;-92
2021/11/30 02:39:24;;;;;;;25.65;14.68;;;2.50;99.90;;;;;;6190043;23;20406;-91
2021/11/30 02:41:52;;;;;;;21.77;13.48;;;2.40;99.90;;;;;;6186667;23;20174;-91
2021/11/30 02:44:20;;;;;;;25.20;16.38;;;2.40;99.90;;;;;;6186802;23;20163;-90
2021/11/30 02:46:54;;;;;;;18.95;12.95;;;2.40;99.90;;;;;;6187038;23;20183;-92
2021/11/30 02:49:23;;;;;;;23.60;14.18;;;2.40;99.90;;;;;;6188444;23;20212;-90
2021/11/30 02:51:53;;;;;;;22.55;14.57;;;2.40;99.90;;;;;;6190666;23;20178;-90
2021/11/30 02:54:23;;;;;;;26.58;15.52;;;2.40;99.90;;;;;;6205998;23;20158;-91
2021/11/30 02:56:53;;;;;;;21.13;14.35;;;2.30;99.90;;;;;;6186731;23;20225;-91
2021/11/30 02:59:20;;;;;;;22.50;14.85;;;2.30;99.90;;;;;;6186630;23;20159;-89
2021/11/30 03:02:01;;;;;;;21.90;13.60;;;2.30;99.90;;;;;;6187909;23;20197;-92
2021/11/30 03:04:27;;;;;;;20.45;14.23;;;2.30;99.90;;;;;;6189064;23;20167;-90
2021/11/30 03:06:57;;;;;;;23.85;14.18;;;2.30;99.90;;;;;;6188148;23;20178;-91
2021/11/30 03:09:24;;;;;;;22.83;13.55;;;2.30;99.90;;;;;;6186998;23;20529;-92
2021/11/30 03:11:50;;;;;;;21.05;15.18;;;2.30;99.90;;;;;;6186663;23;20620;-92
2021/11/30 03:14:16;;;;;;;26.25;14.05;;;2.30;99.90;;;;;;6188035;23;20175;-91
2021/11/30 03:16:45;;;;;;;20.30;13.27;;;2.30;99.90;;;;;;6187832;23;20234;-91
2021/11/30 03:19:11;;;;;;;20.85;13.05;;;2.30;99.90;;;;;;6193780;23;20350;-90
2021/11/30 03:21:37;;;;;;;19.90;13.27;;;2.30;99.90;;;;;;6189412;23;20182;-91
2021/11/30 03:24:03;;;;;;;21.40;13.52;;;2.30;99.90;;;;;;6188136;23;20365;-90
2021/11/30 03:26:29;;;;;;;18.90;12.30;;;2.30;99.90;;;;;;6187965;23;20553;-91
2021/11/30 03:28:55;;;;;;;18.60;12.90;;;2.30;99.90;;;;;;6186302;23;20183;-90
2021/11/30 03:34:11;;;;;;;15.02;12.15;;;2.30;99.90;;;;;;6156978;23;20351;-90
2021/11/30 03:36:38;;;;;;;18.52;12.57;;;2.20;99.90;;;;;;6186144;23;20221;-91
2021/11/30 03:39:08;;;;;;;16.83;11.20;;;2.30;99.90;;;;;;6186364;23;20198;-92
2021/11/30 03:41:34;;;;;;;17.05;11.27;;;2.30;99.90;;;;;;6186124;23;20238;-90
2021/11/30 03:44:03;;;;;;;19.27;11.93;;;2.30;99.90;;;;;;6190448;23;20158;-91
2021/11/30 03:46:30;;;;;;;16.45;11.90;;;2.20;99.90;;;;;;6186392;23;20174;-90
2021/11/30 03:48:57;;;;;;;16.55;11.20;;;2.20;99.90;;;;;;6186042;23;20157;-90
2021/11/30 03:51:23;;;;;;;15.07;11.15;;;2.20;99.90;;;;;;6187654;23;20616;-91
2021/11/30 03:53:48;;;;;;;14.80;10.57;;;2.30;99.90;;;;;;6186241;23;20205;-91
2021/11/30 03:56:14;;;;;;;16.03;10.87;;;2.30;99.90;;;;;;6189336;23;20519;-93
2021/11/30 03:58:40;;;;;;;18.27;11.13;;;2.30;99.90;;;;;;6186263;23;20150;-92
2021/11/30 04:01:06;;;;;;;15.17;11.07;;;2.30;99.90;;;;;;6205648;23;20450;-91
2021/11/30 04:03:34;;;;;;;14.07;10.53;;;2.20;99.90;;;;;;6205773;23;20384;-90
2021/11/30 04:06:01;;;;;;;21.65;11.30;;;2.20;99.90;;;;;;6191884;23;20408;-89
2021/11/30 04:08:26;;;;;;;16.42;9.55;;;2.20;99.90;;;;;;6205128;23;20173;-90
2021/11/30 04:10:52;;;;;;;18.10;11.30;;;2.20;99.90;;;;;;6209757;23;20162;-92
2021/11/30 04:13:18;;;;;;;14.70;11.57;;;2.20;99.90;;;;;;6202043;23;20163;-90
2021/11/30 04:15:43;;;;;;;16.10;11.00;;;2.20;99.90;;;;;;6190560;23;20253;-90
2021/11/30 04:18:09;;;;;;;15.63;9.90;;;2.20;99.90;;;;;;6196750;23;20380;-90
2021/11/30 04:20:35;;;;;;;13.10;9.83;;;2.20;99.90;;;;;;6195015;23;20170;-90
2021/11/30 04:23:01;;;;;;;12.97;9.30;;;2.20;99.90;;;;;;6190869;23;20162;-92
2021/11/30 04:25:27;;;;;;;16.00;10.00;;;2.20;99.90;;;;;;6190493;23;20193;-92
2021/11/30 04:27:52;;;;;;;14.10;9.57;;;2.20;99.90;;;;;;6212755;23;20154;-92
2021/11/30 04:30:18;;;;;;;16.00;10.17;;;2.20;99.90;;;;;;6201987;23;20697;-91
2021/11/30 04:32:44;;;;;;;12.77;8.63;;;2.20;99.90;;;;;;6190335;23;20249;-92
2021/11/30 04:35:11;;;;;;;11.20;8.90;;;2.20;99.90;;;;;;6188358;23;20277;-91
2021/11/30 04:37:38;;;;;;;12.18;8.98;;;2.20;99.90;;;;;;6188376;23;20388;-89
2021/11/30 04:40:06;;;;;;;13.27;9.60;;;2.20;99.90;;;;;;6160331;23;20202;-92
2021/11/30 04:42:32;;;;;;;16.38;9.98;;;2.20;99.90;;;;;;6133574;23;20155;-92
2021/11/30 04:45:09;;;;;;;19.70;10.23;;;2.10;99.90;;;;;;6135481;23;20178;-92
2021/11/30 04:47:38;;;;;;;13.88;9.93;;;2.10;99.90;;;;;;6159913;23;20210;-90
2021/11/30 04:50:12;;;;;;;14.07;9.77;;;2.10;99.90;;;;;;6134032;23;20195;-92
2021/11/30 04:52:40;;;;;;;13.38;8.45;;;2.10;99.90;;;;;;6133255;23;20190;-92
2021/11/30 04:55:06;;;;;;;12.52;8.85;;;2.00;99.90;;;;;;6159634;23;20588;-90
2021/11/30 04:57:32;;;;;;;10.10;7.85;;;2.00;99.90;;;;;;6136414;23;20212;-91
2021/11/30 04:59:58;;;;;;;12.47;9.07;;;2.00;99.90;;;;;;6135471;23;20186;-93
2021/11/30 05:02:24;;;;;;;13.17;9.40;;;2.00;99.90;;;;;;6159714;23;20452;-91
2021/11/30 05:04:50;;;;;;;13.20;9.47;;;2.00;99.90;;;;;;6133370;23;20173;-89
2021/11/30 05:07:17;;;;;;;15.35;10.05;;;2.00;99.90;;;;;;6133375;23;20419;-92
2021/11/30 05:09:43;;;;;;;10.30;8.30;;;2.00;99.90;;;;;;6135694;23;20588;-90
2021/11/30 05:12:10;;;;;;;13.10;9.75;;;2.00;99.90;;;;;;6135028;23;20183;-90
2021/11/30 05:14:36;;;;;;;13.10;8.40;;;2.00;99.90;;;;;;6133496;23;20266;-89
2021/11/30 05:17:03;;;;;;;13.05;8.80;;;2.00;99.90;;;;;;6144928;23;20193;-92
2021/11/30 05:19:28;;;;;;;12.43;9.15;;;2.00;99.90;;;;;;6154002;23;20179;-92
2021/11/30 05:21:54;;;;;;;10.83;8.20;;;2.00;99.90;;;;;;6153031;23;20171;-92
2021/11/30 05:24:21;;;;;;;15.90;8.60;;;2.00;99.90;;;;;;6135320;23;20492;-89
2021/11/30 05:26:48;;;;;;;16.40;9.20;;;2.00;99.90;;;;;;6133319;23;20401;-92
2021/11/30 05:29:14;;;;;;;12.23;9.13;;;2.00;99.90;;;;;;6133694;23;20608;-90
2021/11/30 05:31:40;;;;;;;12.00;9.02;;;2.00;99.90;;;;;;6133066;23;20599;-92
2021/11/30 05:34:06;;;;;;;11.63;9.10;;;2.00;99.90;;;;;;6133278;23;20155;-92
2021/11/30 05:36:33;;;;;;;12.85;8.98;;;2.00;99.90;;;;;;6131756;23;20468;-93
2021/11/30 05:39:00;;;;;;;12.20;9.20;;;2.00;99.90;;;;;;6158293;23;20195;-92
2021/11/30 05:41:26;;;;;;;14.57;7.60;;;2.00;99.90;;;;;;6157338;23;20171;-89
2021/11/30 05:43:53;;;;;;;10.93;8.05;;;2.00;99.90;;;;;;6132386;23;20162;-89
2021/11/30 05:46:20;;;;;;;11.68;6.97;;;2.30;99.90;;;;;;6135499;23;20171;-91
2021/11/30 05:48:46;;;;;;;13.85;8.90;;;2.60;99.90;;;;;;6134288;23;20597;-90
2021/11/30 05:51:12;;;;;;;12.38;8.13;;;2.80;99.90;;;;;;6157650;23;20253;-93
2021/11/30 05:53:38;;;;;;;12.50;7.30;;;2.90;99.90;;;;;;6130015;23;20159;-92
2021/11/30 05:56:08;;;;;;;15.00;8.93;;;2.90;99.90;;;;;;6131636;23;20206;-91
2021/11/30 05:58:37;;;;;;;12.65;8.20;;;2.80;99.90;;;;;;6135786;23;20420;-93
2021/11/30 06:04:00;;;;;;;10.88;8.10;;;2.60;99.90;;;;;;6142329;23;20207;-89
2021/11/30 06:06:31;;;;;;;11.52;8.27;;;2.50;99.90;;;;;;6133635;23;20179;-90
2021/11/30 06:08:57;;;;;;;11.40;7.80;;;2.50;99.90;;;;;;6133588;23;20175;-93
2021/11/30 06:11:23;;;;;;;16.95;8.27;;;2.40;99.90;;;;;;6157405;23;20502;-94
2021/11/30 06:13:49;;;;;;;13.32;8.45;;;2.30;99.90;;;;;;6161626;23;20151;-92
2021/11/30 06:16:15;;;;;;;12.13;8.77;;;2.30;99.90;;;;;;6134636;23;20673;-89
2021/11/30 06:18:41;;;;;;;11.83;8.87;;;2.20;99.90;;;;;;6130581;23;20959;-92
2021/11/30 06:21:07;;;;;;;10.10;8.43;;;2.20;99.90;;;;;;6131243;23;20387;-92
2021/11/30 06:23:33;;;;;;;13.60;9.18;;;2.20;99.90;;;;;;6138858;23;20163;-90
2021/11/30 06:25:58;;;;;;;13.47;9.80;;;2.20;99.90;;;;;;6154148;23;20221;-93
2021/11/30 06:28:24;;;;;;;12.23;8.63;;;2.10;99.90;;;;;;6133698;23;20386;-90
2021/11/30 06:30:51;;;;;;;12.23;8.73;;;2.10;99.90;;;;;;6158041;23;20237;-89
2021/11/30 06:33:17;;;;;;;14.90;9.65;;;2.10;99.90;;;;;;6132350;23;20167;-88
2021/11/30 06:35:43;;;;;;;11.63;8.23;;;2.10;99.90;;;;;;6133098;23;20290;-94
2021/11/30 06:38:09;;;;;;;13.27;8.80;;;2.10;99.90;;;;;;6136777;23;20443;-92
2021/11/30 06:40:35;;;;;;;11.50;8.60;;;2.10;99.90;;;;;;6186069;23;20194;-94
2021/11/30 06:43:01;;;;;;;14.63;9.40;;;2.10;99.90;;;;;;6186807;23;20162;-93
2021/11/30 06:45:27;;;;;;;12.57;9.10;;;2.10;99.90;;;;;;6184748;23;20405;-92
2021/11/30 06:47:52;;;;;;;13.90;8.10;;;2.10;99.90;;;;;;6185752;23;20404;-92
2021/11/30 06:50:18;;;;;;;12.80;8.47;;;2.20;99.90;;;;;;6184463;23;20762;-92
2021/11/30 06:52:48;;;;;;;12.33;7.93;;;2.20;99.90;;;;;;6186475;23;20197;-93
2021/11/30 06:55:13;;;;;;;12.45;9.02;;;2.30;99.90;;;;;;6186157;23;20405;-89
2021/11/30 06:57:39;;;;;;;9.67;7.97;;;2.30;99.90;;;;;;6184518;23;20171;-90
2021/11/30 07:00:07;;;;;;;16.00;9.57;;;2.40;99.90;;;;;;6168512;23;20190;-94
2021/11/30 07:02:35;;;;;;;12.85;9.10;;;2.50;99.90;;;;;;6166679;23;20453;-90
2021/11/30 07:05:14;;;;;;;12.30;9.05;;;2.60;99.90;;;;;;6166201;23;20618;-90
2021/11/30 07:10:24;;;;;;;12.07;8.20;;;2.70;99.90;;;;;;6188680;23;20187;-89
2021/11/30 07:13:14;;;;;;;11.30;8.63;;;2.70;99.90;;;;;;6183381;23;20150;-93
2021/11/30 07:15:35;;;;;;;10.48;8.00;;;2.70;99.90;;;;;;6188778;23;20199;-94
2021/11/30 07:18:02;;;;;;;12.50;8.40;;;2.80;99.90;;;;;;6183855;23;20534;-90
2021/11/30 07:20:28;;;;;;;12.48;8.80;;;2.80;99.90;;;;;;6186009;23;20485;-89
2021/11/30 07:22:56;;;;;;;11.63;8.27;;;2.90;99.90;;;;;;6186821;23;20589;-93
2021/11/30 07:25:26;;;;;;;11.90;8.10;;;3.10;99.90;;;;;;6183986;23;20390;-90
2021/11/30 07:27:53;;;;;;;11.55;7.85;;;3.40;99.90;;;;;;6180248;23;20185;-89
2021/11/30 07:30:20;;;;;;;11.05;7.25;;;3.80;99.90;;;;;;6187696;23;20620;-90
2021/11/30 07:32:46;;;;;;;9.43;7.90;;;4.10;99.90;;;;;;6176295;23;20675;-93
2021/11/30 07:35:12;;;;;;;10.90;8.45;;;4.40;99.90;;;;;;6165289;23;20190;-92
2021/11/30 07:37:38;;;;;;;9.25;8.07;;;4.80;99.90;;;;;;6166121;23;20150;-90
2021/11/30 07:40:04;;;;;;;9.63;7.43;;;5.30;99.90;;;;;;6165069;23;20214;-93
2021/11/30 07:42:32;;;;;;;9.60;7.15;;;5.80;99.90;;;;;;6166735;23;20155;-89
2021/11/30 07:44:59;;;;;;;12.00;7.85;;;6.30;99.90;;;;;;6165711;23;20272;-93
2021/11/30 07:47:26;;;;;;;11.05;8.90;;;6.80;99.90;;;;;;6164923;23;20160;-93
2021/11/30 07:49:52;;;;;;;10.15;7.55;;;7.30;99.90;;;;;;6177161;23;20534;-93
2021/11/30 07:52:18;;;;;;;10.90;7.95;;;7.80;99.90;;;;;;6169519;23;20150;-90
2021/11/30 07:54:50;;;;;;;9.98;8.00;;;8.50;99.90;;;;;;6188771;23;20155;-92
2021/11/30 07:57:16;;;;;;;11.95;8.88;;;9.10;99.90;;;;;;6182166;23;20194;-89
2021/11/30 07:59:42;;;;;;;10.00;8.00;;;9.60;99.90;;;;;;6170396;23;20170;-92
2021/11/30 08:02:11;;;;;;;15.00;9.10;;;9.80;99.90;;;;;;6165720;23;20464;-92
2021/11/30 08:04:37;;;;;;;14.43;12.50;;;9.80;99.90;;;;;;6164624;23;20217;-94
2021/11/30 08:07:03;;;;;;;14.00;10.20;;;9.70;99.90;;;;;;6167871;23;20532;-90
2021/11/30 08:09:33;;;;;;;9.77;8.20;;;9.50;99.90;;;;;;6168636;23;20245;-90
2021/11/30 08:11:59;;;;;;;10.68;7.78;;;9.50;99.90;;;;;;6163634;23;20415;-94
2021/11/30 08:14:25;;;;;;;11.87;8.10;;;9.40;99.90;;;;;;6165781;23;20597;-93
2021/11/30 08:16:51;;;;;;;9.33;7.73;;;9.30;99.90;;;;;;6164035;23;21042;-91
2021/11/30 08:19:17;;;;;;;10.03;7.77;;;9.10;99.90;;;;;;6164142;23;20436;-89
2021/11/30 08:21:44;;;;;;;10.77;8.50;;;9.10;99.90;;;;;;6163895;23;20723;-94
2021/11/30 08:24:09;;;;;;;10.73;7.60;;;9.20;99.90;;;;;;6165396;23;20381;-93
2021/11/30 08:26:35;;;;;;;10.73;7.90;;;9.20;99.90;;;;;;6166938;23;20178;-88
2021/11/30 08:29:01;;;;;;;10.43;7.37;;;9.30;99.90;;;;;;6163631;23;20194;-90
2021/11/30 08:31:27;;;;;;;8.90;7.22;;;9.50;99.90;;;;;;6160785;23;20182;-93
2021/11/30 08:33:53;;;;;;;8.27;7.47;;;9.70;99.90;;;;;;6162980;23;20189;-90
2021/11/30 08:36:19;;;;;;;12.80;8.25;;;10.00;99.90;;;;;;6172003;23;20199;-92
2021/11/30 08:38:45;;;;;;;8.83;7.47;;;10.30;99.90;;;;;;6180175;23;20194;-94
2021/11/30 08:41:11;;;;;;;7.50;6.80;;;10.50;99.90;;;;;;6151800;23;20210;-91
2021/11/30 08:43:37;;;;;;;8.53;7.30;;;10.80;99.90;;;;;;6141389;23;20409;-93
2021/11/30 08:46:03;;;;;;;8.77;7.30;;;11.00;99.90;;;;;;6164292;23;20182;-90
2021/11/30 08:48:29;;;;;;;7.88;6.93;;;11.30;99.90;;;;;;6173545;23;20143;-90
2021/11/30 08:50:57;;;;;;;8.43;7.37;;;11.60;99.90;;;;;;6168828;23;20177;-89
2021/11/30 08:53:25;;;;;;;9.75;7.90;;;11.90;99.90;;;;;;6153500;23;20243;-91
2021/11/30 08:55:51;;;;;;;10.00;8.13;;;12.20;99.90;;;;;;6150119;23;20203;-91
2021/11/30 08:58:17;;;;;;;10.27;7.78;;;12.50;99.90;;;;;;6150625;23;20175;-90
2021/11/30 09:00:43;;;;;;;9.97;8.03;;;12.80;99.70;;;;;;6131348;23;20187;-92
2021/11/30 09:03:09;;;;;;;10.23;8.77;;;12.90;99.20;;;;;;6130064;23;20876;-91
2021/11/30 09:05:35;;;;;;;10.33;9.07;;;12.80;98.50;;;;;;6130400;23;20215;-90
2021/11/30 09:08:02;;;;;;;8.27;7.38;;;12.60;98.90;;;;;;6156499;23;20377;-93
2021/11/30 09:10:28;;;;;;;9.30;7.63;;;12.60;98.80;;;;;;6131531;23;20199;-93
2021/11/30 09:12:54;;;;;;;8.03;7.17;;;12.70;97.90;;;;;;6158122;23;20151;-92
2021/11/30 09:15:19;;;;;;;9.57;7.93;;;12.70;97.60;;;;;;6131176;23;20201;-90
2021/11/30 09:17:45;;;;;;;9.80;7.90;;;12.70;97.70;;;;;;6127427;23;20159;-93
2021/11/30 09:20:13;;;;;;;9.32;8.32;;;12.80;97.60;;;;;;6121732;23;20209;-94
2021/11/30 09:22:39;;;;;;;9.45;8.25;;;12.80;97.20;;;;;;6119943;23;20242;-91
2021/11/30 09:25:06;;;;;;;9.45;7.72;;;12.80;97.40;;;;;;6149551;23;20210;-92
2021/11/30 09:27:33;;;;;;;10.02;8.10;;;12.90;96.90;;;;;;6148327;23;20213;-91
2021/11/30 09:30:01;;;;;;;10.57;8.00;;;13.00;97.10;;;;;;6114196;23;20205;-90
2021/11/30 09:32:30;;;;;;;9.35;8.32;;;13.10;97.00;;;;;;6113640;23;20870;-90
2021/11/30 09:35:00;;;;;;;9.93;7.78;;;13.20;96.40;;;;;;6145857;23;20241;-90
2021/11/30 09:37:27;;;;;;;10.32;8.35;;;13.10;96.40;;;;;;6123172;23;20195;-90
2021/11/30 09:39:53;;;;;;;9.23;8.30;;;13.00;96.10;;;;;;6182700;23;20288;-89
2021/11/30 09:42:19;;;;;;;9.80;7.70;;;12.80;95.90;;;;;;6186416;23;20396;-91
2021/11/30 09:44:46;;;;;;;9.75;8.50;;;12.50;96.30;;;;;;6184695;23;20245;-92
2021/11/30 09:47:14;;;;;;;7.82;6.90;;;12.30;96.50;;;;;;6182973;23;20159;-93
2021/11/30 09:49:40;;;;;;;8.90;7.90;;;12.20;96.60;;;;;;6184972;23;20155;-91
2021/11/30 09:52:06;;;;;;;9.88;7.25;;;12.10;96.80;;;;;;6183773;23;20588;-90
2021/11/30 09:54:32;;;;;;;8.95;7.38;;;12.10;97.00;;;;;;6195774;23;20158;-90
2021/11/30 09:56:59;;;;;;;8.20;7.27;;;12.00;96.80;;;;;;6183798;23;20190;-93
2021/11/30 09:59:25;;;;;;;8.55;7.40;;;11.90;96.70;;;;;;6180250;23;20478;-93
2021/11/30 10:01:51;;;;;;;9.10;7.82;;;11.80;96.70;;;;;;6180431;23;20209;-90
2021/11/30 10:04:17;;;;;;;9.57;6.97;;;11.60;96.50;;;;;;6181950;23;20178;-90
2021/11/30 10:06:43;;;;;;;8.88;7.25;;;11.50;98.00;;;;;;6184463;23;20216;-93
2021/11/30 10:09:22;;;;;;;8.70;7.60;;;11.50;97.70;;;;;;6181650;23;20174;-91
2021/11/30 10:12:06;;;;;;;7.60;6.70;;;11.20;97.10;;;;;;6188130;23;20271;-91
2021/11/30 10:14:37;;;;;;;7.88;7.07;;;11.00;97.60;;;;;;6180672;23;20181;-90
2021/11/30 10:17:10;;;;;;;7.18;6.40;;;10.70;97.80;;;;;;6183511;23;20194;-90
2021/11/30 10:19:39;;;;;;;7.55;6.35;;;10.50;98.40;;;;;;6182920;23;20600;-89
2021/11/30 10:22:05;;;;;;;9.65;7.10;;;10.40;99.10;;;;;;6184002;23;20150;-91
2021/11/30 10:24:31;;;;;;;10.77;7.80;;;10.30;99.20;;;;;;6188716;23;20153;-88
2021/11/30 10:26:58;;;;;;;8.80;6.63;;;10.30;99.90;;;;;;6182222;23;20158;-92
2021/11/30 10:29:25;;;;;;;7.78;6.88;;;10.40;99.10;;;;;;6187525;23;20155;-90
2021/11/30 10:31:53;;;;;;;7.28;6.68;;;10.40;99.30;;;;;;6183549;23;20535;-89
2021/11/30 10:34:26;;;;;;;7.30;6.60;;;10.30;99.10;;;;;;6180525;23;20249;-94
2021/11/30 10:37:08;;;;;;;7.40;6.50;;;10.30;99.20;;;;;;6183499;23;20190;-91
2021/11/30 10:39:35;;;;;;;7.38;5.95;;;10.20;99.10;;;;;;6186301;23;20198;-89
2021/11/30 10:42:17;;;;;;;7.03;6.35;;;10.10;99.30;;;;;;6182132;23;20155;-93
2021/11/30 10:44:44;;;;;;;7.25;6.55;;;10.00;99.40;;;;;;6191329;23;20210;-88
2021/11/30 10:47:16;;;;;;;7.45;6.57;;;9.90;99.10;;;;;;6185756;23;20184;-90
2021/11/30 10:49:52;;;;;;;6.75;6.00;;;9.80;99.20;;;;;;6181716;23;20163;-88
2021/11/30 10:52:28;;;;;;;7.10;6.10;;;9.70;99.90;;;;;;6183837;23;20150;-93
2021/11/30 10:55:13;;;;;;;8.27;7.40;;;9.60;99.80;;;;;;6188366;23;20182;-89
2021/11/30 10:57:39;;;;;;;6.70;5.57;;;9.50;99.90;;;;;;6183328;23;20249;-89
2021/11/30 11:00:15;;;;;;;8.20;6.80;;;9.50;99.00;;;;;;6184308;23;20580;-89
2021/11/30 11:02:49;;;;;;;7.10;6.40;;;9.30;99.20;;;;;;6187744;23;20154;-92
2021/11/30 11:05:28;;;;;;;6.43;5.60;;;9.10;99.80;;;;;;6191759;23;20187;-91
2021/11/30 11:08:07;;;;;;;7.10;5.38;;;9.10;99.90;;;;;;6189206;23;20139;-93
2021/11/30 11:10:34;;;;;;;8.27;5.95;;;9.00;99.90;;;;;;6184757;23;20668;-92
2021/11/30 11:13:26;;;;;;;6.88;6.15;;;9.00;99.90;;;;;;6189010;23;20417;-94
2021/11/30 11:15:57;;;;;;;6.70;6.00;;;8.90;99.90;;;;;;6180828;23;20281;-90
2021/11/30 11:18:29;;;;;;;7.75;5.63;;;8.80;99.90;;;;;;6188015;23;20522;-90
2021/11/30 11:21:23;;;;;;;7.90;6.25;;;8.70;99.90;;;;;;6182310;23;20190;-90
2021/11/30 11:24:12;;;;;;;6.40;5.75;;;8.70;99.70;;;;;;6181802;23;20158;-89
2021/11/30 11:26:38;;;;;;;6.00;5.45;;;8.70;99.90;;;;;;6181938;23;20195;-93
2021/11/30 11:29:10;;;;;;;5.53;5.03;;;8.70;99.90;;;;;;6183649;23;20238;-93
2021/11/30 11:31:38;;;;;;;5.60;5.00;;;8.70;99.90;;;;;;6182143;23;20178;-91
2021/11/30 11:34:05;;;;;;;6.45;5.63;;;8.70;99.70;;;;;;6183939;23;20603;-89
2021/11/30 11:36:31;;;;;;;6.75;5.72;;;8.70;99.60;;;;;;6185392;23;20198;-90
2021/11/30 11:38:58;;;;;;;7.05;5.75;;;8.80;99.10;;;;;;6190701;23;20507;-94
2021/11/30 11:41:25;;;;;;;6.47;5.50;;;8.80;99.00;;;;;;6206413;23;20182;-91
2021/11/30 11:43:52;;;;;;;6.97;5.15;;;8.70;99.70;;;;;;6191329;23;20153;-93
2021/11/30 11:46:19;;;;;;;5.80;5.20;;;8.80;98.90;;;;;;6181300;23;20261;-95
2021/11/30 11:48:48;;;;;;;6.18;4.70;;;8.80;98.80;;;;;;6179278;23;20155;-91
2021/11/30 11:51:15;;;;;;;5.50;4.97;;;8.80;98.70;;;;;;6179925;23;20715;-92
2021/11/30 11:53:55;;;;;;;5.90;5.30;;;8.80;99.00;;;;;;6180554;23;20158;-91
2021/11/30 11:56:27;;;;;;;5.93;5.32;;;8.80;99.10;;;;;;6180311;23;20214;-93
2021/11/30 11:59:11;;;;;;;5.20;4.70;;;8.90;99.20;;;;;;6180452;23;20159;-94
2021/11/30 12:01:40;;;;;;;6.43;5.53;;;9.00;99.40;;;;;;6180653;23;20182;-91
2021/11/30 12:04:09;;;;;;;6.60;5.65;;;9.00;98.90;;;;;;6190666;23;20155;-94
2021/11/30 12:06:48;;;;;;;6.80;5.38;;;9.10;98.30;;;;;;6192766;23;20242;-94
2021/11/30 12:09:19;;;;;;;5.57;4.97;;;9.20;98.50;;;;;;6196385;23;20158;-89
2021/11/30 12:11:48;;;;;;;6.72;5.75;;;9.20;98.90;;;;;;6203786;23;20190;-89
2021/11/30 12:14:30;;;;;;;7.40;5.60;;;9.30;99.00;;;;;;6192566;23;20159;-91
2021/11/30 12:17:10;;;;;;;6.63;5.25;;;9.30;98.50;;;;;;6180164;23;20198;-92
2021/11/30 12:20:00;;;;;;;6.53;5.75;;;9.30;97.90;;;;;;6179290;23;20189;-92
2021/11/30 12:22:58;;;;;;;6.85;6.00;;;9.20;98.30;;;;;;6182585;23;20163;-89
2021/11/30 12:25:27;;;;;;;7.38;6.22;;;9.10;98.00;;;;;;6104789;23;20187;-95
2021/11/30 12:27:55;;;;;;;5.75;5.25;;;9.10;98.60;;;;;;6179626;23;20493;-94
2021/11/30 12:30:42;;;;;;;6.05;5.38;;;9.00;98.10;;;;;;6184508;23;20296;-89
2021/11/30 12:33:20;;;;;;;6.53;4.97;;;9.00;97.90;;;;;;6183583;23;20190;-90
2021/11/30 12:36:10;;;;;;;7.55;5.13;;;8.90;97.30;;;;;;6183369;23;20217;-92
2021/11/30 12:38:38;;;;;;;8.15;6.05;;;8.80;98.20;;;;;;6185608;23;20198;-94
2021/11/30 12:41:22;;;;;;;6.90;6.20;;;8.80;98.50;;;;;;6184457;23;20193;-90
2021/11/30 12:43:50;;;;;;;8.05;6.63;;;8.90;99.20;;;;;;6185277;23;20258;-90
2021/11/30 12:46:40;;;;;;;7.15;5.68;;;8.80;99.50;;;;;;6182571;23;20182;-92
2021/11/30 12:49:24;;;;;;;8.00;6.88;;;8.80;99.50;;;;;;6184728;23;20155;-90
2021/11/30 12:52:09;;;;;;;7.93;6.25;;;8.70;99.50;;;;;;6197541;23;20183;-93
2021/11/30 12:54:38;;;;;;;5.20;4.70;;;8.70;99.50;;;;;;6188065;23;20165;-91
2021/11/30 12:57:06;;;;;;;6.38;4.85;;;8.60;99.30;;;;;;6186901;23;20202;-91
2021/11/30 12:59:37;;;;;;;7.10;6.18;;;8.60;99.30;;;;;;6188180;23;20151;-94
2021/11/30 13:02:24;;;;;;;6.90;5.32;;;8.50;99.60;;;;;;6186642;23;20155;-90
2021/11/30 13:05:15;;;;;;;6.90;5.22;;;8.50;99.40;;;;;;6181780;23;20208;-89